createdAt,value
2018-06-19T00:01:19.992Z,58.80
2018-06-19T00:03:48.361Z,58.80
2018-06-19T00:06:16.706Z,58.70
2018-06-19T00:08:45.630Z,58.80
2018-06-19T00:11:20.715Z,59.20
2018-06-19T00:13:49.073Z,59.30
2018-06-19T00:16:17.424Z,59.30
2018-06-19T00:21:27.027Z,59.10
2018-06-19T00:23:55.353Z,59.10
2018-06-19T00:26:23.683Z,59.30
2018-06-19T00:28:52.052Z,59.50
2018-06-19T00:31:20.382Z,59.50
2018-06-19T00:33:48.705Z,59.30
2018-06-19T00:36:17.032Z,59.30
2018-06-19T00:41:13.416Z,59.30
2018-06-19T00:43:41.756Z,59.30
2018-06-19T00:46:10.166Z,59.40
2018-06-19T00:48:38.596Z,59.50
2018-06-19T00:51:06.945Z,59.40
2018-06-19T00:53:35.294Z,59.60
2018-06-19T00:56:14.948Z,59.50
2018-06-19T00:58:43.345Z,59.30
2018-06-19T01:01:11.653Z,59.40
2018-06-19T01:03:40.014Z,59.60
2018-06-19T01:06:08.448Z,59.80
2018-06-19T01:08:36.795Z,59.70
2018-06-19T01:11:05.146Z,59.80
2018-06-19T01:13:33.454Z,59.90
2018-06-19T01:16:01.787Z,60.00
2018-06-19T01:18:30.233Z,60.10
2018-06-19T01:23:26.813Z,60.30
2018-06-19T01:25:55.154Z,60.40
2018-06-19T01:28:23.531Z,60.10
2018-06-19T01:30:51.880Z,60.80
2018-06-19T01:33:20.226Z,60.20
2018-06-19T01:35:48.608Z,60.20
2018-06-19T01:38:17.013Z,60.20
2018-06-19T01:40:45.285Z,60.40
2018-06-19T01:43:13.676Z,60.50
2018-06-19T01:45:42.104Z,60.50
2018-06-19T01:48:10.450Z,60.20
2018-06-19T01:50:39.240Z,60.20
2018-06-19T01:53:07.580Z,60.20
2018-06-19T01:55:36.028Z,60.30
2018-06-19T01:58:04.414Z,60.20
2018-06-19T02:00:32.748Z,60.50
2018-06-19T02:03:01.075Z,60.50
2018-06-19T02:05:29.409Z,60.40
2018-06-19T02:07:57.751Z,60.50
2018-06-19T02:10:26.062Z,60.50
2018-06-19T02:12:54.436Z,60.70
2018-06-19T02:15:22.848Z,60.70
2018-06-19T02:17:51.196Z,60.70
2018-06-19T02:20:20.524Z,60.70
2018-06-19T02:22:48.850Z,60.80
2018-06-19T02:25:17.186Z,60.80
2018-06-19T02:27:46.104Z,60.90
2018-06-19T02:30:14.436Z,61.10
2018-06-19T02:35:11.080Z,61.40
2018-06-19T02:37:39.434Z,61.20
2018-06-19T02:40:07.801Z,61.50
2018-06-19T02:42:36.182Z,61.40
2018-06-19T02:45:04.957Z,61.60
2018-06-19T02:47:33.236Z,61.50
2018-06-19T02:50:01.624Z,61.40
2018-06-19T02:52:30.001Z,61.30
2018-06-19T02:54:58.360Z,61.50
2018-06-19T02:57:26.710Z,61.40
2018-06-19T02:59:55.032Z,61.50
2018-06-19T03:02:23.559Z,61.50
2018-06-19T03:04:51.960Z,61.60
2018-06-19T03:07:20.294Z,61.30
2018-06-19T03:09:48.660Z,60.60
2018-06-19T03:12:16.994Z,59.60
2018-06-19T03:14:45.323Z,58.80
2018-06-19T03:17:13.663Z,58.20
2018-06-19T03:19:42.012Z,58.10
2018-06-19T03:24:38.895Z,58.00
2018-06-19T03:27:07.298Z,57.90
2018-06-19T03:29:35.661Z,57.90
2018-06-19T03:32:03.994Z,57.90
2018-06-19T03:34:32.375Z,57.60
2018-06-19T03:37:00.737Z,57.50
2018-06-19T03:39:29.063Z,57.80
2018-06-19T03:41:57.403Z,58.40
2018-06-19T03:44:25.733Z,59.70
2018-06-19T03:46:54.066Z,60.50
2018-06-19T03:49:22.409Z,60.70
2018-06-19T03:51:50.822Z,60.50
2018-06-19T03:54:20.245Z,60.10
2018-06-19T03:56:48.904Z,59.20
2018-06-19T03:59:17.298Z,59.50
2018-06-19T04:04:13.887Z,60.50
2018-06-19T04:06:42.305Z,61.80
2018-06-19T04:09:10.651Z,62.20
2018-06-19T04:11:38.996Z,62.00
2018-06-19T04:14:14.020Z,62.10
2018-06-19T04:16:42.973Z,62.10
2018-06-19T04:19:12.016Z,62.30
2018-06-19T04:24:08.603Z,62.20
2018-06-19T04:26:36.951Z,61.90
2018-06-19T04:29:05.900Z,61.50
2018-06-19T04:31:34.253Z,61.70
2018-06-19T04:34:02.595Z,62.00
2018-06-19T04:38:58.989Z,62.30
2018-06-19T04:41:27.309Z,62.00
2018-06-19T04:43:55.655Z,62.10
2018-06-19T04:46:24.004Z,62.20
2018-06-19T04:48:52.357Z,62.20
2018-06-19T04:51:20.732Z,62.00
2018-06-19T04:53:49.477Z,61.90
2018-06-19T04:56:17.855Z,61.70
2018-06-19T04:58:46.203Z,61.80
2018-06-19T05:01:14.561Z,61.90
2018-06-19T05:03:42.998Z,62.30
2018-06-19T05:06:11.357Z,62.30
2018-06-19T05:08:39.723Z,62.30
2018-06-19T05:11:08.082Z,62.20
2018-06-19T05:13:36.459Z,62.20
2018-06-19T05:16:05.113Z,62.10
2018-06-19T05:18:33.549Z,62.20
2018-06-19T05:21:01.966Z,62.30
2018-06-19T05:23:30.419Z,62.40
2018-06-19T05:25:58.825Z,62.70
2018-06-19T05:28:27.300Z,62.50
2018-06-19T05:30:55.731Z,62.00
2018-06-19T05:33:24.175Z,62.00
2018-06-19T05:38:20.687Z,61.20
2018-06-19T05:40:49.055Z,61.10
2018-06-19T05:43:17.389Z,60.60
2018-06-19T05:45:45.769Z,60.40
2018-06-19T05:48:14.146Z,60.20
2018-06-19T05:50:42.534Z,60.20
2018-06-19T05:53:10.954Z,60.00
2018-06-19T05:55:39.304Z,59.70
2018-06-19T05:58:07.659Z,59.80
2018-06-19T06:00:35.993Z,58.90
2018-06-19T06:03:04.361Z,59.00
2018-06-19T06:05:32.786Z,59.40
2018-06-19T06:08:01.167Z,58.40
2018-06-19T06:10:30.247Z,58.70
2018-06-19T06:12:58.563Z,58.60
2018-06-19T06:15:26.911Z,58.70
2018-06-19T06:17:55.417Z,58.80
2018-06-19T06:20:23.829Z,58.40
2018-06-19T06:22:52.203Z,57.80
2018-06-19T06:25:20.513Z,57.70
2018-06-19T06:27:48.859Z,57.80
2018-06-19T06:30:17.212Z,57.70
2018-06-19T06:32:45.841Z,57.20
2018-06-19T06:35:14.317Z,56.60
2018-06-19T06:37:42.647Z,56.60
2018-06-19T06:40:10.989Z,56.00
2018-06-19T06:42:39.371Z,56.70
2018-06-19T06:45:07.735Z,56.60
2018-06-19T06:47:36.109Z,56.90
2018-06-19T06:50:04.465Z,56.00
2018-06-19T06:52:32.910Z,55.00
2018-06-19T06:55:02.056Z,54.90
2018-06-19T06:57:30.391Z,54.60
2018-06-19T06:59:58.724Z,55.30
2018-06-19T07:02:27.107Z,54.10
2018-06-19T07:04:55.549Z,51.80
2018-06-19T07:07:23.869Z,51.60
2018-06-19T07:09:52.257Z,50.80
2018-06-19T07:12:20.931Z,51.70
2018-06-19T07:14:49.273Z,51.30
2018-06-19T07:17:17.631Z,50.50
2018-06-19T07:19:46.010Z,49.20
2018-06-19T07:22:14.355Z,50.30
2018-06-19T07:24:42.777Z,49.10
2018-06-19T07:27:11.245Z,48.90
2018-06-19T07:29:39.637Z,48.50
2018-06-19T07:34:36.035Z,47.50
2018-06-19T07:37:04.454Z,48.60
2018-06-19T07:42:01.038Z,47.10
2018-06-19T07:44:29.369Z,47.80
2018-06-19T07:46:57.691Z,47.70
2018-06-19T07:49:26.116Z,47.40
2018-06-19T07:51:54.481Z,46.80
2018-06-19T07:54:22.945Z,46.90
2018-06-19T07:56:51.344Z,46.80
2018-06-19T07:59:19.909Z,45.60
2018-06-19T08:01:48.241Z,46.10
2018-06-19T08:06:44.847Z,47.20
2018-06-19T08:09:13.259Z,46.20
2018-06-19T08:11:41.594Z,46.30
2018-06-19T08:14:10.298Z,45.50
2018-06-19T08:16:38.658Z,45.30
2018-06-19T08:19:07.024Z,46.00
2018-06-19T08:21:36.102Z,44.50
2018-06-19T08:24:04.430Z,44.80
2018-06-19T08:26:32.803Z,45.50
2018-06-19T08:29:01.263Z,45.20
2018-06-19T08:31:30.207Z,45.30
2018-06-19T08:34:05.320Z,45.80
2018-06-19T08:36:33.717Z,45.20
2018-06-19T08:39:02.111Z,45.00
2018-06-19T08:41:30.496Z,44.40
2018-06-19T08:43:58.812Z,43.50
2018-06-19T08:46:27.138Z,44.60
2018-06-19T08:48:55.501Z,44.10
2018-06-19T08:51:23.836Z,45.60
2018-06-19T08:53:58.598Z,43.60
2018-06-19T08:56:26.926Z,44.00
2018-06-19T08:58:55.333Z,43.30
2018-06-19T09:01:23.672Z,44.40
2018-06-19T09:03:52.673Z,44.50
2018-06-19T09:06:21.610Z,43.70
2018-06-19T09:08:50.009Z,43.30
2018-06-19T09:11:18.577Z,44.00
2018-06-19T09:13:46.899Z,43.30
2018-06-19T09:21:11.358Z,43.60
2018-06-19T09:23:39.712Z,43.60
2018-06-19T09:26:08.325Z,43.70
2018-06-19T09:28:36.691Z,43.80
2018-06-19T09:31:05.431Z,42.60
2018-06-19T09:33:33.861Z,43.30
2018-06-19T09:36:02.189Z,43.40
2018-06-19T09:38:30.586Z,43.80
2018-06-19T09:40:59.012Z,43.00
2018-06-19T09:43:27.348Z,44.10
2018-06-19T09:45:55.713Z,43.50
2018-06-19T09:48:24.074Z,43.80
2018-06-19T09:50:52.432Z,43.30
2018-06-19T09:53:21.275Z,43.70
2018-06-19T09:55:49.735Z,42.90
2018-06-19T09:58:18.382Z,44.00
2018-06-19T10:03:15.702Z,43.10
2018-06-19T10:08:12.308Z,43.30
2018-06-19T10:10:40.658Z,44.20
2018-06-19T10:13:09.025Z,42.90
2018-06-19T10:15:37.379Z,43.10
2018-06-19T10:18:05.728Z,43.70
2018-06-19T10:20:34.140Z,43.10
2018-06-19T10:23:02.450Z,44.00
2018-06-19T10:25:30.784Z,43.10
2018-06-19T10:27:59.160Z,43.30
2018-06-19T10:30:27.520Z,43.40
2018-06-19T10:32:55.956Z,42.60
2018-06-19T10:35:24.287Z,42.50
2018-06-19T10:37:53.177Z,43.40
2018-06-19T10:40:21.730Z,42.60
2018-06-19T10:42:50.059Z,42.50
2018-06-19T10:45:18.428Z,42.50
2018-06-19T10:47:46.758Z,42.60
2018-06-19T10:50:15.105Z,42.90
2018-06-19T10:52:43.512Z,41.90
2018-06-19T10:55:11.862Z,41.30
2018-06-19T10:57:40.226Z,41.30
2018-06-19T11:00:08.873Z,41.30
2018-06-19T11:02:37.215Z,41.80
2018-06-19T11:05:05.846Z,41.90
2018-06-19T11:10:02.500Z,41.60
2018-06-19T11:12:30.840Z,42.00
2018-06-19T11:14:59.180Z,42.80
2018-06-19T11:17:27.555Z,41.40
2018-06-19T11:19:55.885Z,42.30
2018-06-19T11:22:24.242Z,41.00
2018-06-19T11:24:52.648Z,42.10
2018-06-19T11:27:20.979Z,40.60
2018-06-19T11:29:49.366Z,40.00
2018-06-19T11:32:17.786Z,39.40
2018-06-19T11:34:46.134Z,41.30
2018-06-19T11:37:14.479Z,40.30
2018-06-19T11:39:42.806Z,40.70
2018-06-19T11:42:11.166Z,40.90
2018-06-19T11:47:07.900Z,41.70
2018-06-19T11:49:36.240Z,41.10
2018-06-19T11:52:04.599Z,41.40
2018-06-19T11:54:33.109Z,40.80
2018-06-19T11:57:01.682Z,40.40
2018-06-19T11:59:30.050Z,41.50
2018-06-19T12:01:58.420Z,41.20
2018-06-19T12:04:26.780Z,40.90
2018-06-19T12:06:55.193Z,40.60
2018-06-19T12:09:23.532Z,40.10
2018-06-19T12:11:51.864Z,40.40
2018-06-19T12:14:20.248Z,40.60
2018-06-19T12:16:48.582Z,40.00
2018-06-19T12:19:17.510Z,40.30
2018-06-19T12:21:45.880Z,40.20
2018-06-19T12:24:14.242Z,41.50
2018-06-19T12:26:42.752Z,40.70
2018-06-19T12:29:11.123Z,41.80
2018-06-19T12:31:39.522Z,40.40
2018-06-19T12:34:07.903Z,41.30
2018-06-19T12:36:36.375Z,39.50
2018-06-19T12:39:07.420Z,38.90
2018-06-19T12:41:40.227Z,39.70
2018-06-19T12:44:08.862Z,40.30
2018-06-19T12:46:37.604Z,39.20
2018-06-19T12:51:45.880Z,39.90
2018-06-19T12:56:22.347Z,39.60
2018-06-19T12:58:50.717Z,39.10
2018-06-19T13:01:19.781Z,38.80
2018-06-19T13:03:59.406Z,39.10
2018-06-19T13:06:30.633Z,38.80
2018-06-19T13:08:59.005Z,39.70
2018-06-19T13:11:27.364Z,39.70
2018-06-19T13:14:06.846Z,39.40
2018-06-19T13:16:46.506Z,38.30
2018-06-19T13:21:24.048Z,39.00
2018-06-19T13:23:52.395Z,37.40
2018-06-19T13:26:20.754Z,38.20
2018-06-19T13:29:58.908Z,39.00
2018-06-19T13:32:27.535Z,38.60
2018-06-19T13:34:55.914Z,39.10
2018-06-19T13:37:24.285Z,38.50
2018-06-19T13:41:04.365Z,38.90
2018-06-19T13:43:44.305Z,38.70
2018-06-19T13:46:12.985Z,38.30
2018-06-19T13:48:41.982Z,39.80
2018-06-19T13:51:11.003Z,38.00
2018-06-19T13:53:39.640Z,37.30
2018-06-19T13:57:18.915Z,36.00
2018-06-19T13:59:47.824Z,35.90
2018-06-19T14:02:16.484Z,35.60
2018-06-19T14:04:44.863Z,36.30
2018-06-19T14:07:13.381Z,36.60
2018-06-19T14:09:52.989Z,36.90
2018-06-19T14:13:09.183Z,37.00
2018-06-19T14:15:39.113Z,36.60
2018-06-19T14:18:07.931Z,36.50
2018-06-19T14:23:04.829Z,38.10
2018-06-19T14:25:33.195Z,38.30
2018-06-19T14:28:01.585Z,37.60
2018-06-19T14:30:30.149Z,36.50
2018-06-19T14:32:58.567Z,36.00
2018-06-19T14:37:54.905Z,36.90
2018-06-19T14:40:23.340Z,37.50
2018-06-19T14:42:51.692Z,37.30
2018-06-19T14:45:20.125Z,37.30
2018-06-19T14:47:48.459Z,37.80
2018-06-19T14:50:16.788Z,37.80
2018-06-19T14:52:45.181Z,37.60
2018-06-19T14:55:13.503Z,37.60
2018-06-19T14:57:41.876Z,37.60
2018-06-19T15:00:10.981Z,38.30
2018-06-19T15:05:13.926Z,37.90
2018-06-19T15:07:47.567Z,37.80
2018-06-19T15:10:16.296Z,38.10
2018-06-19T15:12:44.629Z,38.20
2018-06-19T15:15:12.964Z,38.80
2018-06-19T15:17:41.435Z,38.60
2018-06-19T15:20:09.841Z,38.50
2018-06-19T15:22:38.166Z,40.00
2018-06-19T15:25:06.533Z,38.30
2018-06-19T15:27:34.894Z,38.60
2018-06-19T15:30:03.301Z,38.30
2018-06-19T15:32:31.865Z,38.90
2018-06-19T15:35:00.196Z,38.70
2018-06-19T15:37:28.556Z,38.70
2018-06-19T15:39:56.920Z,38.70
2018-06-19T15:42:25.332Z,39.70
2018-06-19T15:44:53.690Z,39.50
2018-06-19T15:47:22.036Z,38.80
2018-06-19T15:49:50.441Z,39.60
2018-06-19T15:52:18.815Z,39.10
2018-06-19T15:54:47.252Z,38.50
2018-06-19T15:57:15.619Z,38.90
2018-06-19T15:59:44.235Z,38.80
2018-06-19T16:02:13.052Z,38.90
2018-06-19T16:07:09.707Z,39.20
2018-06-19T16:09:38.052Z,37.70
2018-06-19T16:12:06.367Z,37.70
2018-06-19T16:14:34.717Z,38.10
2018-06-19T16:17:03.131Z,39.20
2018-06-19T16:19:31.475Z,39.30
2018-06-19T16:22:00.367Z,39.00
2018-06-19T16:24:28.704Z,39.10
2018-06-19T16:26:57.163Z,38.40
2018-06-19T16:29:25.668Z,39.30
2018-06-19T16:31:54.027Z,38.80
2018-06-19T16:34:22.414Z,38.80
2018-06-19T16:36:50.763Z,38.80
2018-06-19T16:39:25.580Z,39.10
2018-06-19T16:41:53.932Z,40.10
2018-06-19T16:44:22.299Z,39.70
2018-06-19T16:46:50.666Z,39.60
2018-06-19T16:49:19.048Z,39.90
2018-06-19T16:51:47.424Z,39.60
2018-06-19T16:54:15.816Z,40.40
2018-06-19T16:56:44.187Z,39.50
2018-06-19T16:59:12.556Z,40.00
2018-06-19T17:01:40.949Z,40.40
2018-06-19T17:04:09.321Z,40.60
2018-06-19T17:06:38.271Z,40.50
2018-06-19T17:11:35.583Z,40.30
2018-06-19T17:14:04.113Z,40.20
2018-06-19T17:16:32.533Z,40.80
2018-06-19T17:19:00.916Z,40.20
2018-06-19T17:21:29.270Z,40.20
2018-06-19T17:23:57.642Z,40.20
2018-06-19T17:26:25.973Z,40.20
2018-06-19T17:28:54.326Z,40.70
2018-06-19T17:31:22.675Z,40.80
2018-06-19T17:38:53.768Z,40.60
2018-06-19T17:41:22.162Z,40.70
2018-06-19T17:43:50.556Z,41.10
2018-06-19T17:46:18.907Z,41.20
2018-06-19T17:48:47.280Z,41.30
2018-06-19T17:51:16.356Z,41.60
2018-06-19T17:53:44.740Z,42.40
2018-06-19T17:56:13.068Z,42.60
2018-06-19T17:58:41.444Z,43.00
2018-06-19T18:01:09.808Z,44.00
2018-06-19T18:03:38.180Z,44.00
2018-06-19T18:06:06.571Z,43.90
2018-06-19T18:08:34.932Z,43.90
2018-06-19T18:11:03.314Z,43.80
2018-06-19T18:13:31.790Z,44.40
2018-06-19T18:16:00.601Z,44.30
2018-06-19T18:18:29.024Z,43.60
2018-06-19T18:20:57.396Z,43.90
2018-06-19T18:23:25.732Z,43.90
2018-06-19T18:25:54.110Z,44.20
2018-06-19T18:28:22.543Z,44.50
2018-06-19T18:30:50.997Z,44.80
2018-06-19T18:33:19.368Z,44.90
2018-06-19T18:38:15.798Z,45.40
2018-06-19T18:40:44.146Z,45.50
2018-06-19T18:43:12.531Z,45.50
2018-06-19T18:45:41.659Z,45.70
2018-06-19T18:48:10.009Z,45.60
2018-06-19T18:50:38.451Z,45.90
2018-06-19T18:53:06.860Z,45.70
2018-06-19T19:02:59.523Z,46.60
2018-06-19T19:05:27.846Z,46.70
2018-06-19T19:07:56.235Z,46.80
2018-06-19T19:10:29.820Z,47.20
2018-06-19T19:12:58.165Z,47.50
2018-06-19T19:15:32.477Z,47.60
2018-06-19T19:18:06.115Z,47.70
2018-06-19T19:20:34.604Z,47.70
2018-06-19T19:23:02.987Z,47.70
2018-06-19T19:25:32.051Z,47.70
2018-06-19T19:35:30.501Z,47.20
2018-06-19T19:38:04.182Z,47.10
2018-06-19T19:40:32.605Z,47.50
2018-06-19T19:43:01.441Z,48.20
2018-06-19T19:45:30.648Z,48.30
2018-06-19T19:48:04.365Z,48.80
2018-06-19T19:53:01.044Z,50.10
2018-06-19T19:55:29.406Z,50.20
2018-06-19T19:58:03.020Z,49.70
2018-06-19T20:00:31.392Z,49.70
2018-06-19T20:02:59.755Z,49.70
2018-06-19T20:05:28.477Z,49.70
2018-06-19T20:07:56.856Z,50.00
2018-06-19T20:10:25.756Z,49.80
2018-06-19T20:12:54.140Z,49.80
2018-06-19T20:15:22.464Z,50.20
2018-06-19T20:17:51.013Z,50.10
2018-06-19T20:20:19.332Z,50.20
2018-06-19T20:22:47.680Z,50.20
2018-06-19T20:25:16.120Z,50.30
2018-06-19T20:27:44.497Z,50.90
2018-06-19T20:30:12.852Z,51.30
2018-06-19T20:32:41.172Z,51.30
2018-06-19T20:35:09.546Z,51.10
2018-06-19T20:37:37.916Z,51.50
2018-06-19T20:40:06.250Z,51.80
2018-06-19T20:42:34.639Z,52.00
2018-06-19T20:45:03.037Z,52.20
2018-06-19T20:47:34.340Z,52.20
2018-06-19T20:50:02.746Z,52.10
2018-06-19T20:54:59.344Z,52.20
2018-06-19T20:57:27.682Z,52.20
2018-06-19T20:59:56.583Z,52.30
2018-06-19T21:02:24.983Z,52.40
2018-06-19T21:04:53.349Z,52.60
2018-06-19T21:07:21.706Z,52.70
2018-06-19T21:12:18.096Z,53.00
2018-06-19T21:14:46.520Z,53.10
2018-06-19T21:24:39.272Z,54.20
2018-06-19T21:27:07.711Z,54.00
2018-06-19T21:29:36.076Z,54.00
2018-06-19T21:32:04.636Z,53.90
2018-06-19T21:34:33.032Z,54.00
2018-06-19T21:37:01.348Z,54.10
2018-06-19T21:39:29.706Z,54.10
2018-06-19T21:44:26.064Z,54.50
2018-06-19T21:46:54.408Z,54.70
2018-06-19T21:49:22.739Z,54.90
2018-06-19T21:51:51.097Z,55.10
2018-06-19T21:54:19.442Z,55.00
2018-06-19T21:56:47.800Z,54.70
2018-06-19T21:59:16.207Z,54.80
2018-06-19T22:01:44.551Z,54.70
2018-06-19T22:04:12.906Z,54.90
2018-06-19T22:06:41.223Z,55.10
2018-06-19T22:09:09.588Z,55.20
2018-06-19T22:11:37.919Z,55.00
2018-06-19T22:14:06.372Z,55.00
2018-06-19T22:19:02.800Z,57.20
2018-06-19T22:21:31.200Z,57.00
2018-06-19T22:23:59.645Z,56.20
2018-06-19T22:26:28.005Z,56.00
2018-06-19T22:28:57.020Z,56.40
2018-06-19T22:31:25.472Z,56.50
2018-06-19T22:33:53.848Z,56.10
2018-06-19T22:36:22.182Z,56.20
2018-06-19T22:38:50.537Z,56.50
2018-06-19T22:41:18.907Z,56.40
2018-06-19T22:43:47.234Z,56.20
2018-06-19T22:51:11.702Z,57.00
2018-06-19T22:53:40.020Z,56.70
2018-06-19T22:56:09.101Z,57.00
2018-06-19T22:58:37.462Z,57.00
2018-06-19T23:01:06.057Z,57.00
2018-06-19T23:03:34.411Z,56.80
2018-06-19T23:06:02.865Z,56.60
2018-06-19T23:08:33.855Z,57.10
2018-06-19T23:11:02.357Z,57.10
2018-06-19T23:13:30.769Z,56.90
2018-06-19T23:15:59.114Z,56.70
2018-06-19T23:18:27.492Z,56.80
2018-06-19T23:20:55.861Z,57.20
2018-06-19T23:23:24.284Z,57.20
2018-06-19T23:25:52.531Z,57.20
2018-06-19T23:28:20.897Z,57.30
2018-06-19T23:30:49.234Z,57.00
2018-06-19T23:33:17.592Z,57.10
2018-06-19T23:35:45.931Z,57.30
2018-06-19T23:38:14.257Z,57.00
2018-06-19T23:40:42.641Z,57.10
2018-06-19T23:43:11.021Z,57.20
2018-06-19T23:45:39.408Z,57.30
2018-06-19T23:48:07.751Z,57.60
2018-06-19T23:50:36.176Z,57.50
2018-06-19T23:53:04.652Z,58.10
2018-06-19T23:55:32.986Z,58.50
2018-06-19T23:58:01.342Z,58.20
